sensor_id;sensor_type;location;lat;lon;timestamp;P1;durP1;ratioP1;P2;durP2;ratioP2
81648;SDS011;71057;51.436;6.768;2023-07-29T00:01:23;4.63;;;2.83;;
81648;SDS011;71057;51.436;6.768;2023-07-29T00:03:48;4.70;;;3.70;;
81648;SDS011;71057;51.436;6.768;2023-07-29T00:06:13;3.97;;;3.47;;
81648;SDS011;71057;51.436;6.768;2023-07-29T00:08:39;4.90;;;3.87;;
81648;SDS011;71057;51.436;6.768;2023-07-29T00:11:04;4.17;;;3.77;;
81648;SDS011;71057;51.436;6.768;2023-07-29T00:13:29;3.97;;;3.30;;
81648;SDS011;71057;51.436;6.768;2023-07-29T00:15:54;3.97;;;2.57;;
81648;SDS011;71057;51.436;6.768;2023-07-29T00:18:20;5.35;;;3.15;;
81648;SDS011;71057;51.436;6.768;2023-07-29T00:20:46;5.00;;;4.03;;
81648;SDS011;71057;51.436;6.768;2023-07-29T00:23:11;3.40;;;3.00;;
81648;SDS011;71057;51.436;6.768;2023-07-29T00:25:36;4.50;;;3.47;;
81648;SDS011;71057;51.436;6.768;2023-07-29T00:28:01;3.53;;;3.07;;
81648;SDS011;71057;51.436;6.768;2023-07-29T00:30:26;5.83;;;3.80;;
81648;SDS011;71057;51.436;6.768;2023-07-29T00:32:51;3.43;;;2.57;;
81648;SDS011;71057;51.436;6.768;2023-07-29T00:35:17;4.93;;;3.10;;
81648;SDS011;71057;51.436;6.768;2023-07-29T00:37:42;4.13;;;3.40;;
81648;SDS011;71057;51.436;6.768;2023-07-29T00:40:13;4.87;;;3.43;;
81648;SDS011;71057;51.436;6.768;2023-07-29T00:42:39;6.50;;;3.33;;
81648;SDS011;71057;51.436;6.768;2023-07-29T00:45:05;4.22;;;3.22;;
81648;SDS011;71057;51.436;6.768;2023-07-29T00:47:32;6.15;;;3.47;;
81648;SDS011;71057;51.436;6.768;2023-07-29T00:49:58;4.83;;;3.50;;
81648;SDS011;71057;51.436;6.768;2023-07-29T00:52:23;4.72;;;3.90;;
81648;SDS011;71057;51.436;6.768;2023-07-29T00:54:48;3.20;;;2.83;;
81648;SDS011;71057;51.436;6.768;2023-07-29T00:57:13;4.90;;;3.70;;
81648;SDS011;71057;51.436;6.768;2023-07-29T00:59:40;4.28;;;3.88;;
81648;SDS011;71057;51.436;6.768;2023-07-29T01:02:05;3.97;;;3.10;;
81648;SDS011;71057;51.436;6.768;2023-07-29T01:04:31;3.67;;;2.92;;
81648;SDS011;71057;51.436;6.768;2023-07-29T01:07:04;3.77;;;3.10;;
81648;SDS011;71057;51.436;6.768;2023-07-29T01:12:07;5.28;;;3.45;;
81648;SDS011;71057;51.436;6.768;2023-07-29T01:14:46;4.07;;;2.97;;
81648;SDS011;71057;51.436;6.768;2023-07-29T01:17:15;4.20;;;3.38;;
81648;SDS011;71057;51.436;6.768;2023-07-29T01:20:05;4.20;;;2.92;;
81648;SDS011;71057;51.436;6.768;2023-07-29T01:22:32;3.97;;;3.58;;
81648;SDS011;71057;51.436;6.768;2023-07-29T01:24:58;5.25;;;3.25;;
81648;SDS011;71057;51.436;6.768;2023-07-29T01:27:23;3.10;;;2.80;;
81648;SDS011;71057;51.436;6.768;2023-07-29T01:29:49;4.32;;;3.33;;
81648;SDS011;71057;51.436;6.768;2023-07-29T01:32:19;4.67;;;3.03;;
81648;SDS011;71057;51.436;6.768;2023-07-29T01:34:47;3.90;;;3.10;;
81648;SDS011;71057;51.436;6.768;2023-07-29T01:37:15;4.18;;;3.78;;
81648;SDS011;71057;51.436;6.768;2023-07-29T01:39:42;4.57;;;3.10;;
81648;SDS011;71057;51.436;6.768;2023-07-29T01:42:09;6.18;;;3.35;;
81648;SDS011;71057;51.436;6.768;2023-07-29T01:44:34;5.18;;;3.47;;
81648;SDS011;71057;51.436;6.768;2023-07-29T01:47:00;4.10;;;2.88;;
81648;SDS011;71057;51.436;6.768;2023-07-29T01:49:25;3.80;;;3.17;;
81648;SDS011;71057;51.436;6.768;2023-07-29T01:51:50;5.75;;;3.20;;
81648;SDS011;71057;51.436;6.768;2023-07-29T01:54:16;5.00;;;3.90;;
81648;SDS011;71057;51.436;6.768;2023-07-29T01:56:41;6.22;;;3.42;;
81648;SDS011;71057;51.436;6.768;2023-07-29T01:59:06;5.60;;;3.30;;
81648;SDS011;71057;51.436;6.768;2023-07-29T02:01:31;3.65;;;2.92;;
81648;SDS011;71057;51.436;6.768;2023-07-29T02:03:57;4.72;;;3.25;;
81648;SDS011;71057;51.436;6.768;2023-07-29T02:06:22;4.22;;;3.42;;
81648;SDS011;71057;51.436;6.768;2023-07-29T02:08:48;3.58;;;3.22;;
81648;SDS011;71057;51.436;6.768;2023-07-29T02:11:13;4.30;;;3.47;;
81648;SDS011;71057;51.436;6.768;2023-07-29T02:13:38;4.03;;;3.43;;
81648;SDS011;71057;51.436;6.768;2023-07-29T02:16:03;3.67;;;3.10;;
81648;SDS011;71057;51.436;6.768;2023-07-29T02:18:28;3.97;;;3.30;;
81648;SDS011;71057;51.436;6.768;2023-07-29T02:20:54;5.23;;;4.50;;
81648;SDS011;71057;51.436;6.768;2023-07-29T02:23:19;5.90;;;4.60;;
81648;SDS011;71057;51.436;6.768;2023-07-29T02:25:44;5.40;;;3.80;;
81648;SDS011;71057;51.436;6.768;2023-07-29T02:28:09;3.70;;;3.10;;
81648;SDS011;71057;51.436;6.768;2023-07-29T02:30:34;5.30;;;3.03;;
81648;SDS011;71057;51.436;6.768;2023-07-29T02:32:59;4.13;;;3.23;;
81648;SDS011;71057;51.436;6.768;2023-07-29T02:35:26;7.35;;;4.25;;
81648;SDS011;71057;51.436;6.768;2023-07-29T02:37:51;3.63;;;3.33;;
81648;SDS011;71057;51.436;6.768;2023-07-29T02:40:16;5.17;;;3.90;;
81648;SDS011;71057;51.436;6.768;2023-07-29T02:42:42;4.73;;;4.10;;
81648;SDS011;71057;51.436;6.768;2023-07-29T02:45:07;5.60;;;4.30;;
81648;SDS011;71057;51.436;6.768;2023-07-29T02:47:34;6.07;;;4.03;;
81648;SDS011;71057;51.436;6.768;2023-07-29T02:50:00;4.60;;;3.55;;
81648;SDS011;71057;51.436;6.768;2023-07-29T02:52:25;5.70;;;3.83;;
81648;SDS011;71057;51.436;6.768;2023-07-29T02:54:50;6.00;;;3.70;;
81648;SDS011;71057;51.436;6.768;2023-07-29T02:57:15;4.20;;;3.57;;
81648;SDS011;71057;51.436;6.768;2023-07-29T02:59:42;5.18;;;3.70;;
81648;SDS011;71057;51.436;6.768;2023-07-29T03:02:07;4.23;;;3.70;;
81648;SDS011;71057;51.436;6.768;2023-07-29T03:04:32;6.53;;;3.83;;
81648;SDS011;71057;51.436;6.768;2023-07-29T03:06:57;4.85;;;3.72;;
81648;SDS011;71057;51.436;6.768;2023-07-29T03:09:24;4.20;;;3.30;;
81648;SDS011;71057;51.436;6.768;2023-07-29T03:11:49;4.33;;;3.57;;
81648;SDS011;71057;51.436;6.768;2023-07-29T03:14:15;3.83;;;3.22;;
81648;SDS011;71057;51.436;6.768;2023-07-29T03:16:41;6.23;;;4.00;;
81648;SDS011;71057;51.436;6.768;2023-07-29T03:19:06;4.25;;;3.47;;
81648;SDS011;71057;51.436;6.768;2023-07-29T03:21:31;5.80;;;3.80;;
81648;SDS011;71057;51.436;6.768;2023-07-29T03:23:56;5.63;;;3.80;;
81648;SDS011;71057;51.436;6.768;2023-07-29T03:26:22;4.18;;;3.72;;
81648;SDS011;71057;51.436;6.768;2023-07-29T03:28:47;7.20;;;3.60;;
81648;SDS011;71057;51.436;6.768;2023-07-29T03:31:12;4.00;;;3.57;;
81648;SDS011;71057;51.436;6.768;2023-07-29T03:33:37;3.83;;;3.53;;
81648;SDS011;71057;51.436;6.768;2023-07-29T03:36:03;4.33;;;3.13;;
81648;SDS011;71057;51.436;6.768;2023-07-29T03:38:28;4.78;;;3.85;;
81648;SDS011;71057;51.436;6.768;2023-07-29T03:40:53;4.57;;;3.67;;
81648;SDS011;71057;51.436;6.768;2023-07-29T03:43:19;4.30;;;3.90;;
81648;SDS011;71057;51.436;6.768;2023-07-29T03:45:44;4.45;;;3.60;;
81648;SDS011;71057;51.436;6.768;2023-07-29T03:48:09;6.93;;;3.35;;
81648;SDS011;71057;51.436;6.768;2023-07-29T03:50:35;5.93;;;4.10;;
81648;SDS011;71057;51.436;6.768;2023-07-29T03:53:01;4.35;;;3.58;;
81648;SDS011;71057;51.436;6.768;2023-07-29T03:55:26;4.60;;;3.95;;
81648;SDS011;71057;51.436;6.768;2023-07-29T03:57:51;4.03;;;3.10;;
81648;SDS011;71057;51.436;6.768;2023-07-29T04:00:16;5.03;;;3.40;;
81648;SDS011;71057;51.436;6.768;2023-07-29T04:02:42;4.33;;;3.50;;
81648;SDS011;71057;51.436;6.768;2023-07-29T04:05:07;3.92;;;3.33;;
81648;SDS011;71057;51.436;6.768;2023-07-29T04:07:35;4.95;;;3.95;;
81648;SDS011;71057;51.436;6.768;2023-07-29T04:10:01;5.50;;;4.25;;
81648;SDS011;71057;51.436;6.768;2023-07-29T04:12:26;5.43;;;4.55;;
81648;SDS011;71057;51.436;6.768;2023-07-29T04:14:52;11.07;;;3.22;;
81648;SDS011;71057;51.436;6.768;2023-07-29T04:17:17;4.72;;;3.38;;
81648;SDS011;71057;51.436;6.768;2023-07-29T04:19:42;7.30;;;3.60;;
81648;SDS011;71057;51.436;6.768;2023-07-29T04:22:07;3.63;;;3.30;;
81648;SDS011;71057;51.436;6.768;2023-07-29T04:24:32;3.67;;;3.27;;
81648;SDS011;71057;51.436;6.768;2023-07-29T04:26:58;4.30;;;3.30;;
81648;SDS011;71057;51.436;6.768;2023-07-29T04:29:23;4.70;;;3.80;;
81648;SDS011;71057;51.436;6.768;2023-07-29T04:31:49;5.20;;;3.93;;
81648;SDS011;71057;51.436;6.768;2023-07-29T04:34:14;5.95;;;4.53;;
81648;SDS011;71057;51.436;6.768;2023-07-29T04:36:39;5.63;;;4.97;;
81648;SDS011;71057;51.436;6.768;2023-07-29T04:39:04;6.57;;;5.00;;
81648;SDS011;71057;51.436;6.768;2023-07-29T04:41:30;6.70;;;5.68;;
81648;SDS011;71057;51.436;6.768;2023-07-29T04:43:55;8.07;;;4.80;;
81648;SDS011;71057;51.436;6.768;2023-07-29T04:46:20;5.10;;;4.30;;
81648;SDS011;71057;51.436;6.768;2023-07-29T04:48:45;6.53;;;5.17;;
81648;SDS011;71057;51.436;6.768;2023-07-29T04:51:10;8.07;;;5.37;;
81648;SDS011;71057;51.436;6.768;2023-07-29T04:53:36;5.83;;;4.93;;
81648;SDS011;71057;51.436;6.768;2023-07-29T04:56:01;6.70;;;5.60;;
81648;SDS011;71057;51.436;6.768;2023-07-29T04:58:27;6.18;;;5.40;;
81648;SDS011;71057;51.436;6.768;2023-07-29T05:00:54;5.85;;;4.68;;
81648;SDS011;71057;51.436;6.768;2023-07-29T05:03:19;6.73;;;4.80;;
81648;SDS011;71057;51.436;6.768;2023-07-29T05:05:44;6.17;;;4.87;;
81648;SDS011;71057;51.436;6.768;2023-07-29T05:08:10;6.63;;;5.07;;
81648;SDS011;71057;51.436;6.768;2023-07-29T05:10:35;5.53;;;4.53;;
81648;SDS011;71057;51.436;6.768;2023-07-29T05:13:00;6.32;;;4.68;;
81648;SDS011;71057;51.436;6.768;2023-07-29T05:15:26;5.20;;;4.70;;
81648;SDS011;71057;51.436;6.768;2023-07-29T05:17:51;5.13;;;4.57;;
81648;SDS011;71057;51.436;6.768;2023-07-29T05:20:16;5.83;;;4.80;;
81648;SDS011;71057;51.436;6.768;2023-07-29T05:22:41;6.57;;;4.50;;
81648;SDS011;71057;51.436;6.768;2023-07-29T05:25:07;3.43;;;3.13;;
81648;SDS011;71057;51.436;6.768;2023-07-29T05:27:32;5.80;;;3.33;;
81648;SDS011;71057;51.436;6.768;2023-07-29T05:29:57;5.23;;;3.53;;
81648;SDS011;71057;51.436;6.768;2023-07-29T05:32:22;4.60;;;3.63;;
81648;SDS011;71057;51.436;6.768;2023-07-29T05:34:48;5.67;;;4.67;;
81648;SDS011;71057;51.436;6.768;2023-07-29T05:37:13;4.20;;;3.80;;
81648;SDS011;71057;51.436;6.768;2023-07-29T05:39:38;4.40;;;3.40;;
81648;SDS011;71057;51.436;6.768;2023-07-29T05:42:03;4.93;;;3.40;;
81648;SDS011;71057;51.436;6.768;2023-07-29T05:44:28;4.00;;;3.13;;
81648;SDS011;71057;51.436;6.768;2023-07-29T05:46:55;4.97;;;2.97;;
81648;SDS011;71057;51.436;6.768;2023-07-29T05:49:20;3.53;;;2.60;;
81648;SDS011;71057;51.436;6.768;2023-07-29T05:51:45;2.93;;;2.30;;
81648;SDS011;71057;51.436;6.768;2023-07-29T05:54:11;3.53;;;2.13;;
81648;SDS011;71057;51.436;6.768;2023-07-29T05:56:36;3.60;;;2.70;;
81648;SDS011;71057;51.436;6.768;2023-07-29T05:59:01;4.20;;;2.13;;
81648;SDS011;71057;51.436;6.768;2023-07-29T06:01:26;4.33;;;2.10;;
81648;SDS011;71057;51.436;6.768;2023-07-29T06:03:51;2.93;;;2.13;;
81648;SDS011;71057;51.436;6.768;2023-07-29T06:06:17;4.47;;;2.07;;
81648;SDS011;71057;51.436;6.768;2023-07-29T06:08:42;4.18;;;2.10;;
81648;SDS011;71057;51.436;6.768;2023-07-29T06:11:07;3.10;;;2.20;;
81648;SDS011;71057;51.436;6.768;2023-07-29T06:13:32;2.67;;;1.83;;
81648;SDS011;71057;51.436;6.768;2023-07-29T06:15:58;2.80;;;2.47;;
81648;SDS011;71057;51.436;6.768;2023-07-29T06:18:23;3.50;;;1.90;;
81648;SDS011;71057;51.436;6.768;2023-07-29T06:20:49;3.72;;;2.45;;
81648;SDS011;71057;51.436;6.768;2023-07-29T06:23:14;7.73;;;2.67;;
81648;SDS011;71057;51.436;6.768;2023-07-29T06:25:39;3.90;;;2.83;;
81648;SDS011;71057;51.436;6.768;2023-07-29T06:28:04;4.53;;;2.77;;
81648;SDS011;71057;51.436;6.768;2023-07-29T06:30:29;3.00;;;2.45;;
81648;SDS011;71057;51.436;6.768;2023-07-29T06:32:55;3.03;;;1.90;;
81648;SDS011;71057;51.436;6.768;2023-07-29T06:35:20;4.80;;;1.67;;
81648;SDS011;71057;51.436;6.768;2023-07-29T06:37:45;3.23;;;1.87;;
81648;SDS011;71057;51.436;6.768;2023-07-29T06:40:10;2.97;;;2.10;;
81648;SDS011;71057;51.436;6.768;2023-07-29T06:42:36;2.30;;;1.93;;
81648;SDS011;71057;51.436;6.768;2023-07-29T06:45:02;3.67;;;1.88;;
81648;SDS011;71057;51.436;6.768;2023-07-29T06:47:27;2.25;;;1.85;;
81648;SDS011;71057;51.436;6.768;2023-07-29T06:49:53;3.17;;;1.90;;
81648;SDS011;71057;51.436;6.768;2023-07-29T06:52:18;2.25;;;1.45;;
81648;SDS011;71057;51.436;6.768;2023-07-29T06:54:44;3.47;;;1.88;;
81648;SDS011;71057;51.436;6.768;2023-07-29T06:57:09;2.90;;;1.87;;
81648;SDS011;71057;51.436;6.768;2023-07-29T06:59:34;2.73;;;1.83;;
81648;SDS011;71057;51.436;6.768;2023-07-29T07:01:59;2.75;;;1.65;;
81648;SDS011;71057;51.436;6.768;2023-07-29T07:04:25;1.75;;;1.33;;
81648;SDS011;71057;51.436;6.768;2023-07-29T07:06:50;2.75;;;1.23;;
81648;SDS011;71057;51.436;6.768;2023-07-29T07:09:15;1.83;;;1.30;;
81648;SDS011;71057;51.436;6.768;2023-07-29T07:11:40;2.20;;;1.40;;
81648;SDS011;71057;51.436;6.768;2023-07-29T07:14:06;2.27;;;1.57;;
81648;SDS011;71057;51.436;6.768;2023-07-29T07:16:31;3.03;;;1.63;;
81648;SDS011;71057;51.436;6.768;2023-07-29T07:18:56;2.97;;;1.60;;
81648;SDS011;71057;51.436;6.768;2023-07-29T07:21:21;2.67;;;1.50;;
81648;SDS011;71057;51.436;6.768;2023-07-29T07:23:48;2.97;;;1.57;;
81648;SDS011;71057;51.436;6.768;2023-07-29T07:26:14;2.53;;;1.50;;
81648;SDS011;71057;51.436;6.768;2023-07-29T07:28:39;2.50;;;1.50;;
81648;SDS011;71057;51.436;6.768;2023-07-29T07:31:04;2.80;;;1.77;;
81648;SDS011;71057;51.436;6.768;2023-07-29T07:33:29;2.53;;;1.60;;
81648;SDS011;71057;51.436;6.768;2023-07-29T07:35:54;2.60;;;1.43;;
81648;SDS011;71057;51.436;6.768;2023-07-29T07:38:20;3.10;;;1.37;;
81648;SDS011;71057;51.436;6.768;2023-07-29T07:40:54;1.97;;;1.50;;
81648;SDS011;71057;51.436;6.768;2023-07-29T07:43:23;2.20;;;1.40;;
81648;SDS011;71057;51.436;6.768;2023-07-29T07:45:48;3.53;;;1.70;;
81648;SDS011;71057;51.436;6.768;2023-07-29T07:48:13;1.53;;;1.20;;
81648;SDS011;71057;51.436;6.768;2023-07-29T07:50:38;2.50;;;1.43;;
81648;SDS011;71057;51.436;6.768;2023-07-29T07:53:04;2.47;;;1.30;;
81648;SDS011;71057;51.436;6.768;2023-07-29T07:55:29;4.17;;;1.70;;
81648;SDS011;71057;51.436;6.768;2023-07-29T07:57:54;2.20;;;1.30;;
81648;SDS011;71057;51.436;6.768;2023-07-29T08:00:20;1.77;;;1.27;;
81648;SDS011;71057;51.436;6.768;2023-07-29T08:02:45;1.60;;;1.10;;
81648;SDS011;71057;51.436;6.768;2023-07-29T08:05:11;1.48;;;1.17;;
81648;SDS011;71057;51.436;6.768;2023-07-29T08:07:36;1.75;;;1.27;;
81648;SDS011;71057;51.436;6.768;2023-07-29T08:10:02;1.93;;;0.90;;
81648;SDS011;71057;51.436;6.768;2023-07-29T08:12:27;2.63;;;1.30;;
81648;SDS011;71057;51.436;6.768;2023-07-29T08:14:52;1.60;;;1.00;;
81648;SDS011;71057;51.436;6.768;2023-07-29T08:17:18;2.53;;;1.30;;
81648;SDS011;71057;51.436;6.768;2023-07-29T08:19:43;1.93;;;1.30;;
81648;SDS011;71057;51.436;6.768;2023-07-29T08:22:08;2.65;;;1.25;;
81648;SDS011;71057;51.436;6.768;2023-07-29T08:24:33;1.97;;;1.20;;
81648;SDS011;71057;51.436;6.768;2023-07-29T08:26:59;2.35;;;1.10;;
81648;SDS011;71057;51.436;6.768;2023-07-29T08:29:24;3.27;;;1.90;;
81648;SDS011;71057;51.436;6.768;2023-07-29T08:31:49;2.00;;;1.40;;
81648;SDS011;71057;51.436;6.768;2023-07-29T08:34:16;2.90;;;1.30;;
81648;SDS011;71057;51.436;6.768;2023-07-29T08:36:41;2.67;;;1.67;;
81648;SDS011;71057;51.436;6.768;2023-07-29T08:39:06;2.27;;;1.40;;
81648;SDS011;71057;51.436;6.768;2023-07-29T08:41:37;1.80;;;1.30;;
81648;SDS011;71057;51.436;6.768;2023-07-29T08:46:31;2.53;;;1.90;;
81648;SDS011;71057;51.436;6.768;2023-07-29T08:48:56;2.72;;;1.15;;
81648;SDS011;71057;51.436;6.768;2023-07-29T08:51:21;2.23;;;1.40;;
81648;SDS011;71057;51.436;6.768;2023-07-29T08:53:48;2.67;;;1.70;;
81648;SDS011;71057;51.436;6.768;2023-07-29T08:56:14;2.03;;;1.48;;
81648;SDS011;71057;51.436;6.768;2023-07-29T08:58:40;2.17;;;1.30;;
81648;SDS011;71057;51.436;6.768;2023-07-29T09:01:21;1.50;;;0.93;;
81648;SDS011;71057;51.436;6.768;2023-07-29T09:03:46;1.70;;;1.25;;
81648;SDS011;71057;51.436;6.768;2023-07-29T09:06:11;2.87;;;1.50;;
81648;SDS011;71057;51.436;6.768;2023-07-29T09:08:38;2.05;;;1.85;;
81648;SDS011;71057;51.436;6.768;2023-07-29T09:11:03;2.20;;;1.40;;
81648;SDS011;71057;51.436;6.768;2023-07-29T09:13:28;2.53;;;1.60;;
81648;SDS011;71057;51.436;6.768;2023-07-29T09:15:54;1.70;;;1.23;;
81648;SDS011;71057;51.436;6.768;2023-07-29T09:18:19;1.80;;;1.40;;
81648;SDS011;71057;51.436;6.768;2023-07-29T09:20:48;2.03;;;1.35;;
81648;SDS011;71057;51.436;6.768;2023-07-29T09:23:14;2.25;;;1.70;;
81648;SDS011;71057;51.436;6.768;2023-07-29T09:25:39;2.40;;;2.00;;
81648;SDS011;71057;51.436;6.768;2023-07-29T09:28:12;1.75;;;1.23;;
81648;SDS011;71057;51.436;6.768;2023-07-29T09:30:38;2.30;;;1.80;;
81648;SDS011;71057;51.436;6.768;2023-07-29T09:33:03;2.97;;;2.13;;
81648;SDS011;71057;51.436;6.768;2023-07-29T09:35:30;3.43;;;1.73;;
81648;SDS011;71057;51.436;6.768;2023-07-29T09:37:59;2.10;;;1.45;;
81648;SDS011;71057;51.436;6.768;2023-07-29T09:40:24;3.30;;;1.70;;
81648;SDS011;71057;51.436;6.768;2023-07-29T09:42:50;2.35;;;1.67;;
81648;SDS011;71057;51.436;6.768;2023-07-29T09:45:23;2.63;;;1.40;;
81648;SDS011;71057;51.436;6.768;2023-07-29T09:47:49;2.20;;;1.67;;
81648;SDS011;71057;51.436;6.768;2023-07-29T09:50:14;1.88;;;1.42;;
81648;SDS011;71057;51.436;6.768;2023-07-29T09:52:40;3.95;;;1.30;;
81648;SDS011;71057;51.436;6.768;2023-07-29T09:55:06;2.25;;;1.63;;
81648;SDS011;71057;51.436;6.768;2023-07-29T09:57:32;2.55;;;1.80;;
81648;SDS011;71057;51.436;6.768;2023-07-29T09:59:57;2.57;;;1.57;;
81648;SDS011;71057;51.436;6.768;2023-07-29T10:02:23;2.10;;;1.67;;
81648;SDS011;71057;51.436;6.768;2023-07-29T10:04:50;2.65;;;1.73;;
81648;SDS011;71057;51.436;6.768;2023-07-29T10:07:16;4.10;;;2.17;;
81648;SDS011;71057;51.436;6.768;2023-07-29T10:09:42;2.67;;;1.48;;
81648;SDS011;71057;51.436;6.768;2023-07-29T10:12:08;1.83;;;1.42;;
81648;SDS011;71057;51.436;6.768;2023-07-29T10:14:34;2.25;;;1.45;;
81648;SDS011;71057;51.436;6.768;2023-07-29T10:17:00;2.23;;;1.63;;
81648;SDS011;71057;51.436;6.768;2023-07-29T10:19:25;2.53;;;1.40;;
81648;SDS011;71057;51.436;6.768;2023-07-29T10:21:51;2.00;;;1.30;;
81648;SDS011;71057;51.436;6.768;2023-07-29T10:24:22;2.47;;;1.77;;
81648;SDS011;71057;51.436;6.768;2023-07-29T10:26:53;3.35;;;1.70;;
81648;SDS011;71057;51.436;6.768;2023-07-29T10:29:19;2.50;;;1.77;;
81648;SDS011;71057;51.436;6.768;2023-07-29T10:31:48;2.50;;;1.50;;
81648;SDS011;71057;51.436;6.768;2023-07-29T10:34:13;2.65;;;2.00;;
81648;SDS011;71057;51.436;6.768;2023-07-29T10:36:39;2.90;;;2.13;;
81648;SDS011;71057;51.436;6.768;2023-07-29T10:39:06;2.17;;;1.70;;
81648;SDS011;71057;51.436;6.768;2023-07-29T10:45:02;2.63;;;2.13;;
81648;SDS011;71057;51.436;6.768;2023-07-29T10:47:12;2.70;;;1.95;;
81648;SDS011;71057;51.436;6.768;2023-07-29T10:49:41;2.03;;;1.67;;
81648;SDS011;71057;51.436;6.768;2023-07-29T10:52:06;2.58;;;1.60;;
81648;SDS011;71057;51.436;6.768;2023-07-29T10:54:47;2.80;;;1.80;;
81648;SDS011;71057;51.436;6.768;2023-07-29T10:57:33;2.70;;;2.08;;
81648;SDS011;71057;51.436;6.768;2023-07-29T10:59:59;2.50;;;1.98;;
81648;SDS011;71057;51.436;6.768;2023-07-29T11:02:32;4.55;;;2.47;;
81648;SDS011;71057;51.436;6.768;2023-07-29T11:05:07;3.17;;;1.92;;
81648;SDS011;71057;51.436;6.768;2023-07-29T11:07:52;2.53;;;2.30;;
81648;SDS011;71057;51.436;6.768;2023-07-29T11:10:34;2.83;;;2.38;;
81648;SDS011;71057;51.436;6.768;2023-07-29T11:13:26;2.75;;;1.95;;
81648;SDS011;71057;51.436;6.768;2023-07-29T11:15:59;6.45;;;1.92;;
81648;SDS011;71057;51.436;6.768;2023-07-29T11:18:27;2.70;;;2.00;;
81648;SDS011;71057;51.436;6.768;2023-07-29T11:20:59;2.35;;;1.63;;
81648;SDS011;71057;51.436;6.768;2023-07-29T11:23:28;3.28;;;2.35;;
81648;SDS011;71057;51.436;6.768;2023-07-29T11:26:19;3.10;;;1.90;;
81648;SDS011;71057;51.436;6.768;2023-07-29T11:28:54;2.72;;;1.88;;
81648;SDS011;71057;51.436;6.768;2023-07-29T11:31:39;2.42;;;2.22;;
81648;SDS011;71057;51.436;6.768;2023-07-29T11:34:07;3.13;;;1.90;;
81648;SDS011;71057;51.436;6.768;2023-07-29T11:36:36;3.13;;;2.25;;
81648;SDS011;71057;51.436;6.768;2023-07-29T11:39:25;2.95;;;2.65;;
81648;SDS011;71057;51.436;6.768;2023-07-29T11:42:02;2.20;;;1.90;;
81648;SDS011;71057;51.436;6.768;2023-07-29T11:47:24;2.58;;;2.00;;
81648;SDS011;71057;51.436;6.768;2023-07-29T11:50:03;2.53;;;2.00;;
81648;SDS011;71057;51.436;6.768;2023-07-29T11:52:34;2.75;;;2.33;;
81648;SDS011;71057;51.436;6.768;2023-07-29T11:55:05;2.95;;;1.73;;
81648;SDS011;71057;51.436;6.768;2023-07-29T11:57:31;2.97;;;2.67;;
81648;SDS011;71057;51.436;6.768;2023-07-29T12:00:03;3.30;;;2.08;;
81648;SDS011;71057;51.436;6.768;2023-07-29T12:02:29;3.58;;;2.65;;
81648;SDS011;71057;51.436;6.768;2023-07-29T12:05:06;2.42;;;1.70;;
81648;SDS011;71057;51.436;6.768;2023-07-29T12:07:35;4.15;;;2.35;;
81648;SDS011;71057;51.436;6.768;2023-07-29T12:10:09;2.15;;;1.90;;
81648;SDS011;71057;51.436;6.768;2023-07-29T12:12:48;3.47;;;2.13;;
81648;SDS011;71057;51.436;6.768;2023-07-29T12:15:25;4.13;;;1.67;;
81648;SDS011;71057;51.436;6.768;2023-07-29T12:17:57;3.95;;;1.90;;
81648;SDS011;71057;51.436;6.768;2023-07-29T12:20:43;3.60;;;2.20;;
81648;SDS011;71057;51.436;6.768;2023-07-29T12:23:09;3.13;;;2.40;;
81648;SDS011;71057;51.436;6.768;2023-07-29T12:25:34;3.40;;;1.90;;
81648;SDS011;71057;51.436;6.768;2023-07-29T12:28:04;2.35;;;1.85;;
81648;SDS011;71057;51.436;6.768;2023-07-29T12:30:32;3.25;;;2.10;;
81648;SDS011;71057;51.436;6.768;2023-07-29T12:33:01;2.70;;;1.73;;
81648;SDS011;71057;51.436;6.768;2023-07-29T12:35:37;2.55;;;1.88;;
81648;SDS011;71057;51.436;6.768;2023-07-29T12:38:25;4.75;;;2.05;;
81648;SDS011;71057;51.436;6.768;2023-07-29T12:40:56;4.25;;;2.67;;
81648;SDS011;71057;51.436;6.768;2023-07-29T12:43:27;3.00;;;2.55;;
81648;SDS011;71057;51.436;6.768;2023-07-29T12:45:53;2.87;;;1.90;;
81648;SDS011;71057;51.436;6.768;2023-07-29T12:48:20;2.67;;;1.77;;
81648;SDS011;71057;51.436;6.768;2023-07-29T12:50:54;2.88;;;1.92;;
81648;SDS011;71057;51.436;6.768;2023-07-29T12:53:28;3.15;;;2.20;;
81648;SDS011;71057;51.436;6.768;2023-07-29T12:56:05;2.40;;;2.20;;
81648;SDS011;71057;51.436;6.768;2023-07-29T12:58:31;3.13;;;2.20;;
81648;SDS011;71057;51.436;6.768;2023-07-29T13:01:04;3.95;;;1.73;;
81648;SDS011;71057;51.436;6.768;2023-07-29T13:03:32;2.50;;;2.28;;
81648;SDS011;71057;51.436;6.768;2023-07-29T13:06:03;2.17;;;1.80;;
81648;SDS011;71057;51.436;6.768;2023-07-29T13:08:29;2.95;;;2.20;;
81648;SDS011;71057;51.436;6.768;2023-07-29T13:10:55;3.53;;;2.22;;
81648;SDS011;71057;51.436;6.768;2023-07-29T13:13:34;4.32;;;2.67;;
81648;SDS011;71057;51.436;6.768;2023-07-29T13:16:02;3.83;;;2.53;;
81648;SDS011;71057;51.436;6.768;2023-07-29T13:18:36;3.17;;;2.33;;
81648;SDS011;71057;51.436;6.768;2023-07-29T13:21:05;2.30;;;1.83;;
81648;SDS011;71057;51.436;6.768;2023-07-29T13:23:33;3.65;;;2.63;;
81648;SDS011;71057;51.436;6.768;2023-07-29T13:26:15;2.72;;;2.15;;
81648;SDS011;71057;51.436;6.768;2023-07-29T13:28:40;2.85;;;2.10;;
81648;SDS011;71057;51.436;6.768;2023-07-29T13:31:11;3.60;;;1.90;;
81648;SDS011;71057;51.436;6.768;2023-07-29T13:36:56;3.90;;;3.10;;
81648;SDS011;71057;51.436;6.768;2023-07-29T13:39:24;3.30;;;2.13;;
81648;SDS011;71057;51.436;6.768;2023-07-29T13:41:52;3.80;;;2.47;;
81648;SDS011;71057;51.436;6.768;2023-07-29T13:44:25;3.80;;;2.88;;
81648;SDS011;71057;51.436;6.768;2023-07-29T13:46:56;3.60;;;2.70;;
81648;SDS011;71057;51.436;6.768;2023-07-29T13:49:48;3.50;;;2.53;;
81648;SDS011;71057;51.436;6.768;2023-07-29T13:52:13;4.43;;;2.57;;
81648;SDS011;71057;51.436;6.768;2023-07-29T13:54:39;4.25;;;2.97;;
81648;SDS011;71057;51.436;6.768;2023-07-29T13:57:04;3.47;;;2.65;;
81648;SDS011;71057;51.436;6.768;2023-07-29T13:59:31;4.28;;;3.50;;
81648;SDS011;71057;51.436;6.768;2023-07-29T14:01:59;3.50;;;2.77;;
81648;SDS011;71057;51.436;6.768;2023-07-29T14:04:25;3.83;;;3.13;;
81648;SDS011;71057;51.436;6.768;2023-07-29T14:06:54;4.10;;;3.05;;
81648;SDS011;71057;51.436;6.768;2023-07-29T14:09:22;5.57;;;2.92;;
81648;SDS011;71057;51.436;6.768;2023-07-29T14:11:47;4.32;;;3.35;;
81648;SDS011;71057;51.436;6.768;2023-07-29T14:14:16;3.90;;;2.95;;
81648;SDS011;71057;51.436;6.768;2023-07-29T14:16:49;4.65;;;3.10;;
81648;SDS011;71057;51.436;6.768;2023-07-29T14:19:17;3.63;;;2.67;;
81648;SDS011;71057;51.436;6.768;2023-07-29T14:21:51;4.35;;;2.90;;
81648;SDS011;71057;51.436;6.768;2023-07-29T14:24:24;3.47;;;2.50;;
81648;SDS011;71057;51.436;6.768;2023-07-29T14:27:00;3.38;;;1.80;;
81648;SDS011;71057;51.436;6.768;2023-07-29T14:29:34;3.05;;;1.60;;
81648;SDS011;71057;51.436;6.768;2023-07-29T14:31:59;2.20;;;1.37;;
81648;SDS011;71057;51.436;6.768;2023-07-29T14:34:24;2.00;;;1.23;;
81648;SDS011;71057;51.436;6.768;2023-07-29T14:36:50;3.33;;;1.67;;
81648;SDS011;71057;51.436;6.768;2023-07-29T14:39:15;3.05;;;1.45;;
81648;SDS011;71057;51.436;6.768;2023-07-29T14:41:40;3.23;;;1.90;;
81648;SDS011;71057;51.436;6.768;2023-07-29T14:44:05;4.53;;;2.57;;
81648;SDS011;71057;51.436;6.768;2023-07-29T14:46:30;3.07;;;2.40;;
81648;SDS011;71057;51.436;6.768;2023-07-29T14:48:55;3.57;;;2.10;;
81648;SDS011;71057;51.436;6.768;2023-07-29T14:51:21;15.83;;;3.90;;
81648;SDS011;71057;51.436;6.768;2023-07-29T14:53:47;8.00;;;3.78;;
81648;SDS011;71057;51.436;6.768;2023-07-29T14:56:12;5.43;;;3.53;;
81648;SDS011;71057;51.436;6.768;2023-07-29T14:58:40;3.80;;;3.38;;
81648;SDS011;71057;51.436;6.768;2023-07-29T15:01:05;4.37;;;3.27;;
81648;SDS011;71057;51.436;6.768;2023-07-29T15:03:30;4.80;;;3.93;;